createdAt,value
2023-03-08T00:00:21.129Z,0.95
2023-03-08T00:03:17.941Z,0.92
2023-03-08T00:05:45.533Z,0.90
2023-03-08T00:08:14.972Z,0.87
2023-03-08T00:10:45.296Z,0.86
2023-03-08T00:13:13.517Z,0.84
2023-03-08T00:15:41.624Z,0.80
2023-03-08T00:18:11.995Z,0.79
2023-03-08T00:20:42.334Z,0.77
2023-03-08T00:23:29.787Z,0.76
2023-03-08T00:26:11.789Z,0.76
2023-03-08T00:28:59.444Z,0.74
2023-03-08T00:31:38.003Z,0.72
2023-03-08T00:34:08.550Z,0.69
2023-03-08T00:36:41.013Z,0.69
2023-03-08T00:39:28.445Z,0.69
2023-03-08T00:42:09.367Z,0.68
2023-03-08T00:44:57.025Z,0.64
2023-03-08T00:47:45.088Z,0.61
2023-03-08T00:50:32.867Z,0.56
2023-03-08T00:53:09.655Z,0.51
2023-03-08T00:55:53.163Z,0.46
2023-03-08T00:58:31.649Z,0.44
2023-03-08T01:01:01.891Z,0.41
2023-03-08T01:03:34.434Z,0.38
2023-03-08T01:06:15.360Z,0.33
2023-03-08T01:08:46.352Z,0.30
2023-03-08T01:11:26.150Z,0.25
2023-03-08T01:13:57.484Z,0.21
2023-03-08T01:16:27.163Z,0.20
2023-03-08T01:18:54.823Z,0.19
2023-03-08T01:21:42.687Z,0.16
2023-03-08T01:24:12.218Z,0.16
2023-03-08T01:26:41.963Z,0.16
2023-03-08T01:29:09.253Z,0.17
2023-03-08T01:31:50.891Z,0.15
2023-03-08T01:34:37.224Z,0.14
2023-03-08T01:37:07.392Z,0.13
2023-03-08T01:39:35.138Z,0.10
2023-03-08T01:42:12.956Z,0.08
2023-03-08T01:45:01.619Z,0.03
2023-03-08T01:47:32.546Z,-0.02
2023-03-08T01:50:23.672Z,-0.03
2023-03-08T01:52:57.262Z,-0.05
2023-03-08T01:55:45.408Z,-0.07
2023-03-08T01:58:26.627Z,-0.10
2023-03-08T02:01:11.965Z,-0.13
2023-03-08T02:03:51.509Z,-0.12
2023-03-08T02:06:39.352Z,-0.12
2023-03-08T02:09:09.916Z,-0.11
2023-03-08T02:11:40.242Z,-0.11
2023-03-08T02:14:08.017Z,-0.11
2023-03-08T02:16:39.361Z,-0.12
2023-03-08T02:19:28.994Z,-0.13
2023-03-08T02:21:59.926Z,-0.14
2023-03-08T02:24:30.410Z,-0.14
2023-03-08T02:27:08.339Z,-0.15
2023-03-08T02:29:36.227Z,-0.14
2023-03-08T02:32:07.389Z,-0.15
2023-03-08T02:34:55.335Z,-0.16
2023-03-08T02:37:22.528Z,-0.16
2023-03-08T02:40:02.509Z,-0.16
2023-03-08T02:42:40.011Z,-0.15
2023-03-08T02:45:28.933Z,-0.14
2023-03-08T02:47:56.115Z,-0.14
2023-03-08T02:50:44.367Z,-0.13
2023-03-08T02:53:11.577Z,-0.12
2023-03-08T02:55:49.616Z,-0.10
2023-03-08T02:58:17.997Z,-0.09
2023-03-08T03:01:11.729Z,-0.08
2023-03-08T03:03:42.913Z,-0.07
2023-03-08T03:06:22.514Z,-0.07
2023-03-08T03:08:53.193Z,-0.06
2023-03-08T03:11:23.246Z,-0.05
2023-03-08T03:13:58.083Z,-0.03
2023-03-08T03:16:45.598Z,-0.03
2023-03-08T03:19:15.830Z,-0.05
2023-03-08T03:21:43.313Z,-0.04
2023-03-08T03:24:10.899Z,-0.04
2023-03-08T03:26:54.765Z,-0.04
2023-03-08T03:29:42.478Z,-0.04
2023-03-08T03:32:21.077Z,-0.03
2023-03-08T03:34:55.307Z,-0.05
2023-03-08T03:37:31.982Z,-0.05
2023-03-08T03:40:20.244Z,-0.05
2023-03-08T03:42:51.700Z,-0.03
2023-03-08T03:45:39.314Z,-0.01
2023-03-08T03:48:27.353Z,0.01
2023-03-08T03:51:00.485Z,0.03
2023-03-08T03:53:39.177Z,0.03
2023-03-08T03:56:28.948Z,0.05
2023-03-08T03:58:59.104Z,0.07
2023-03-08T04:01:28.989Z,0.09
2023-03-08T04:04:02.593Z,0.09
2023-03-08T04:06:50.538Z,0.12
2023-03-08T04:09:38.476Z,0.12
2023-03-08T04:12:10.585Z,0.12
2023-03-08T04:14:58.062Z,0.11
2023-03-08T04:17:30.484Z,0.12
2023-03-08T04:20:08.641Z,0.11
2023-03-08T04:22:41.384Z,0.10
2023-03-08T04:25:15.878Z,0.11
2023-03-08T04:28:03.580Z,0.11
2023-03-08T04:30:41.713Z,0.12
2023-03-08T04:33:12.445Z,0.12
2023-03-08T04:35:45.351Z,0.12
2023-03-08T04:38:33.764Z,0.10
2023-03-08T04:41:22.194Z,0.07
2023-03-08T04:44:05.231Z,0.04
2023-03-08T04:46:46.505Z,0.03
2023-03-08T04:49:17.677Z,0.04
2023-03-08T04:51:47.585Z,0.03
2023-03-08T04:54:14.945Z,0.01
2023-03-08T04:56:55.874Z,-0.00
2023-03-08T04:59:34.755Z,0.00
2023-03-08T05:02:05.961Z,-0.00
2023-03-08T05:04:45.709Z,0.00
2023-03-08T05:07:15.703Z,0.01
2023-03-08T05:09:54.385Z,0.02
2023-03-08T05:12:32.287Z,0.04
2023-03-08T05:15:00.778Z,0.05
2023-03-08T05:17:37.631Z,0.05
2023-03-08T05:20:09.479Z,0.06
2023-03-08T05:22:57.176Z,0.07
2023-03-08T05:25:45.717Z,0.07
2023-03-08T05:28:37.524Z,0.08
2023-03-08T05:31:12.299Z,0.08
2023-03-08T05:34:00.053Z,0.08
2023-03-08T05:36:37.087Z,0.09
2023-03-08T05:39:08.066Z,0.09
2023-03-08T05:41:41.462Z,0.08
2023-03-08T05:44:09.737Z,0.07
2023-03-08T05:46:39.184Z,0.08
2023-03-08T05:49:07.317Z,0.09
2023-03-08T05:51:40.202Z,0.10
2023-03-08T05:54:12.027Z,0.11
2023-03-08T05:56:40.538Z,0.13
2023-03-08T05:59:18.858Z,0.15
2023-03-08T06:01:46.964Z,0.18
2023-03-08T06:04:36.907Z,0.19
2023-03-08T06:07:04.772Z,0.16
2023-03-08T06:09:42.060Z,0.16
2023-03-08T06:12:13.202Z,0.17
2023-03-08T06:14:44.835Z,0.20
2023-03-08T06:17:32.631Z,0.31
2023-03-08T06:20:20.711Z,0.43
2023-03-08T06:23:00.767Z,0.58
2023-03-08T06:25:28.673Z,0.75
2023-03-08T06:28:16.666Z,0.91
2023-03-08T06:31:02.814Z,1.13
2023-03-08T06:33:36.343Z,1.54
2023-03-08T06:36:10.038Z,1.73
2023-03-08T06:38:47.762Z,1.97
2023-03-08T06:41:20.348Z,3.44
2023-03-08T06:43:51.380Z,4.94
2023-03-08T06:46:20.364Z,5.92
2023-03-08T06:48:49.845Z,7.55
2023-03-08T06:51:17.369Z,8.97
2023-03-08T06:53:45.485Z,10.36
2023-03-08T06:56:17.067Z,11.87
2023-03-08T06:58:44.834Z,13.10
2023-03-08T07:01:13.945Z,14.20
2023-03-08T07:03:41.261Z,14.96
2023-03-08T07:06:10.299Z,15.76
2023-03-08T07:08:39.406Z,16.53
2023-03-08T07:11:08.906Z,17.14
2023-03-08T07:13:36.567Z,17.71
2023-03-08T07:16:09.502Z,18.30
2023-03-08T07:18:37.013Z,18.70
2023-03-08T07:21:04.927Z,18.85
2023-03-08T07:23:32.160Z,18.92
2023-03-08T07:25:59.525Z,18.88
2023-03-08T07:28:27.061Z,19.05
2023-03-08T07:30:55.393Z,19.48
2023-03-08T07:33:23.435Z,19.85
2023-03-08T07:35:51.351Z,20.36
2023-03-08T07:38:18.801Z,20.50
2023-03-08T07:40:46.013Z,20.40
2023-03-08T07:43:13.861Z,19.53
2023-03-08T07:45:56.823Z,18.23
2023-03-08T07:48:24.277Z,16.62
2023-03-08T07:50:51.340Z,15.02
2023-03-08T07:53:18.456Z,13.88
2023-03-08T07:55:45.846Z,13.93
2023-03-08T07:58:13.591Z,14.23
2023-03-08T08:00:41.206Z,13.97
2023-03-08T08:03:08.726Z,14.08
2023-03-08T08:05:37.882Z,14.20
2023-03-08T08:08:05.444Z,14.19
2023-03-08T08:10:32.733Z,14.23
2023-03-08T08:13:00.228Z,14.71
2023-03-08T08:15:27.894Z,15.04
2023-03-08T08:17:55.372Z,15.08
2023-03-08T08:20:25.403Z,15.72
2023-03-08T08:22:53.603Z,15.86
2023-03-08T08:25:21.769Z,15.14
2023-03-08T08:27:49.069Z,15.47
2023-03-08T08:30:17.791Z,15.87
2023-03-08T08:32:45.243Z,15.82
2023-03-08T08:35:13.051Z,15.32
2023-03-08T08:37:40.127Z,14.59
2023-03-08T08:40:10.653Z,13.89
2023-03-08T08:42:37.830Z,13.31
2023-03-08T08:45:05.292Z,13.12
2023-03-08T08:47:33.317Z,13.41
2023-03-08T08:50:00.427Z,13.38
2023-03-08T08:52:27.945Z,13.59
2023-03-08T08:54:57.037Z,13.49
2023-03-08T08:57:24.301Z,13.85
2023-03-08T08:59:51.402Z,14.23
2023-03-08T09:02:19.010Z,14.65
2023-03-08T09:04:46.932Z,14.61
2023-03-08T09:07:14.241Z,14.56
2023-03-08T09:09:41.508Z,14.68
2023-03-08T09:12:09.615Z,14.51
2023-03-08T09:14:37.105Z,14.18
2023-03-08T09:17:06.592Z,14.45
2023-03-08T09:19:33.812Z,14.96
2023-03-08T09:22:00.913Z,15.29
2023-03-08T09:24:28.189Z,15.33
2023-03-08T09:26:55.386Z,15.43
2023-03-08T09:29:22.426Z,15.52
2023-03-08T09:31:49.732Z,15.66
2023-03-08T09:34:16.936Z,15.98
2023-03-08T09:36:45.455Z,15.74
2023-03-08T09:39:14.432Z,15.11
2023-03-08T09:41:52.826Z,14.89
2023-03-08T09:44:44.188Z,15.26
2023-03-08T09:47:20.176Z,15.54
2023-03-08T09:49:53.895Z,15.68
2023-03-08T09:52:30.940Z,15.84
2023-03-08T09:54:57.460Z,15.80
2023-03-08T09:57:29.507Z,15.95
2023-03-08T09:59:59.980Z,16.03
2023-03-08T10:02:37.758Z,15.51
2023-03-08T10:05:14.310Z,15.31
2023-03-08T10:07:51.169Z,14.89
2023-03-08T10:10:31.039Z,13.78
2023-03-08T10:13:12.578Z,12.69
2023-03-08T10:15:44.603Z,11.71
2023-03-08T10:18:18.644Z,10.83
2023-03-08T10:20:47.046Z,10.23
2023-03-08T10:23:17.852Z,10.11
2023-03-08T10:25:46.027Z,10.39
2023-03-08T10:28:16.995Z,10.69
2023-03-08T10:30:49.063Z,10.46
2023-03-08T10:33:19.744Z,9.99
2023-03-08T10:35:57.659Z,9.38
2023-03-08T10:38:27.547Z,8.84
2023-03-08T10:41:02.428Z,8.42
2023-03-08T10:43:33.167Z,7.94
2023-03-08T10:46:06.866Z,7.57
2023-03-08T10:48:34.739Z,7.28
2023-03-08T10:51:06.854Z,7.04
2023-03-08T10:53:34.986Z,6.84
2023-03-08T10:56:04.115Z,6.57
2023-03-08T10:58:39.576Z,6.32
2023-03-08T11:01:25.509Z,6.08
2023-03-08T11:04:03.728Z,5.84
2023-03-08T11:06:31.305Z,5.69
2023-03-08T11:09:01.248Z,5.64
2023-03-08T11:11:28.919Z,5.59
2023-03-08T11:13:57.673Z,5.48
2023-03-08T11:16:49.763Z,5.32
2023-03-08T11:19:40.585Z,5.16
2023-03-08T11:22:20.037Z,5.09
2023-03-08T11:25:02.635Z,5.08
2023-03-08T11:27:45.359Z,5.46
2023-03-08T11:30:27.437Z,5.68
2023-03-08T11:33:16.005Z,5.81
2023-03-08T11:35:51.616Z,5.94
2023-03-08T11:38:23.926Z,6.06
2023-03-08T11:41:21.322Z,6.18
2023-03-08T11:44:07.112Z,6.18
2023-03-08T11:46:45.412Z,6.16
2023-03-08T11:49:30.945Z,6.24
2023-03-08T11:52:09.103Z,6.58
2023-03-08T11:55:01.886Z,7.03
2023-03-08T11:57:34.581Z,7.26
2023-03-08T12:00:13.146Z,7.34
2023-03-08T12:02:46.443Z,7.66
2023-03-08T12:05:27.271Z,8.01
2023-03-08T12:08:04.545Z,8.34
2023-03-08T12:10:38.228Z,8.75
2023-03-08T12:13:16.094Z,8.89
2023-03-08T12:15:50.186Z,8.91
2023-03-08T12:18:22.249Z,8.76
2023-03-08T12:20:51.407Z,8.48
2023-03-08T12:23:27.658Z,8.18
2023-03-08T12:26:23.059Z,7.83
2023-03-08T12:28:54.366Z,7.52
2023-03-08T12:31:29.717Z,7.23
2023-03-08T12:33:59.035Z,6.94
2023-03-08T12:36:39.761Z,6.66
2023-03-08T12:39:11.655Z,6.62
2023-03-08T12:41:39.023Z,6.90
2023-03-08T12:44:08.294Z,7.06
2023-03-08T12:47:02.785Z,7.10
2023-03-08T12:49:36.899Z,7.01
2023-03-08T12:52:24.772Z,6.86
2023-03-08T12:55:02.573Z,6.69
2023-03-08T12:57:32.818Z,6.54
2023-03-08T13:00:04.887Z,6.43
2023-03-08T13:02:34.556Z,6.37
2023-03-08T13:05:22.328Z,6.38
2023-03-08T13:08:08.981Z,6.42
2023-03-08T13:10:39.210Z,6.47
2023-03-08T13:13:38.274Z,6.52
2023-03-08T13:16:19.542Z,6.59
2023-03-08T13:18:49.496Z,6.77
2023-03-08T13:21:27.164Z,6.90
2023-03-08T13:24:00.512Z,6.88
2023-03-08T13:26:56.030Z,6.77
2023-03-08T13:29:23.984Z,6.68
2023-03-08T13:31:52.630Z,6.61
2023-03-08T13:34:31.595Z,6.69
2023-03-08T13:36:59.071Z,6.79
2023-03-08T13:39:28.798Z,6.82
2023-03-08T13:42:06.801Z,6.81
2023-03-08T13:44:34.256Z,6.84
2023-03-08T13:47:05.993Z,7.01
2023-03-08T13:49:36.882Z,7.18
2023-03-08T13:52:17.109Z,7.27
2023-03-08T13:54:50.550Z,7.35
2023-03-08T13:57:23.923Z,7.33
2023-03-08T13:59:53.542Z,7.29
2023-03-08T14:02:24.808Z,7.25
2023-03-08T14:04:53.019Z,7.21
2023-03-08T14:07:26.536Z,7.07
2023-03-08T14:09:53.869Z,6.91
2023-03-08T14:12:26.238Z,6.66
2023-03-08T14:14:57.058Z,6.52
2023-03-08T14:17:27.322Z,6.54
2023-03-08T14:20:01.042Z,6.54
2023-03-08T14:22:39.147Z,6.53
2023-03-08T14:25:21.704Z,6.48
2023-03-08T14:27:49.282Z,6.36
2023-03-08T14:30:19.106Z,6.20
2023-03-08T14:32:59.724Z,6.06
2023-03-08T14:35:29.982Z,5.86
2023-03-08T14:37:58.684Z,5.74
2023-03-08T14:40:32.841Z,5.63
2023-03-08T14:43:04.815Z,5.54
2023-03-08T14:45:37.025Z,5.47
2023-03-08T14:48:20.860Z,5.41
2023-03-08T14:50:57.473Z,5.37
2023-03-08T14:53:30.519Z,5.30
2023-03-08T14:55:58.787Z,5.23
2023-03-08T14:58:29.013Z,5.16
2023-03-08T15:00:58.760Z,5.09
2023-03-08T15:03:26.446Z,5.01
2023-03-08T15:05:54.011Z,4.93
2023-03-08T15:08:21.855Z,4.86
2023-03-08T15:10:50.622Z,4.76
2023-03-08T15:13:19.479Z,4.69
2023-03-08T15:15:48.158Z,4.64
2023-03-08T15:18:15.617Z,4.59
2023-03-08T15:20:52.232Z,4.55
2023-03-08T15:23:27.232Z,4.50
2023-03-08T15:26:21.027Z,4.46
2023-03-08T15:28:48.369Z,4.44
2023-03-08T15:31:15.730Z,4.43
2023-03-08T15:33:50.906Z,4.41
2023-03-08T15:36:35.901Z,4.38
2023-03-08T15:39:05.950Z,4.32
2023-03-08T15:41:53.887Z,4.25
2023-03-08T15:44:24.266Z,4.21
2023-03-08T15:46:52.980Z,4.17
2023-03-08T15:49:20.591Z,4.16
2023-03-08T15:51:48.335Z,4.11
2023-03-08T15:54:15.475Z,4.09
2023-03-08T15:56:43.052Z,4.06
2023-03-08T15:59:10.722Z,4.06
2023-03-08T16:01:50.912Z,4.04
2023-03-08T16:04:21.458Z,4.03
2023-03-08T16:06:48.807Z,4.02
2023-03-08T16:09:36.551Z,3.98
2023-03-08T16:12:14.428Z,3.93
2023-03-08T16:14:57.406Z,3.84
2023-03-08T16:17:29.882Z,3.79
2023-03-08T16:19:59.903Z,3.72
2023-03-08T16:22:29.016Z,3.65
2023-03-08T16:24:56.421Z,3.55
2023-03-08T16:27:24.396Z,3.45
2023-03-08T16:30:02.309Z,3.37
2023-03-08T16:32:32.984Z,3.32
2023-03-08T16:35:01.322Z,3.23
2023-03-08T16:37:31.257Z,3.15
2023-03-08T16:40:02.221Z,3.10
2023-03-08T16:42:30.637Z,3.05
2023-03-08T16:44:58.597Z,3.00
2023-03-08T16:47:27.425Z,2.93
2023-03-08T16:49:54.869Z,2.81
2023-03-08T16:52:22.540Z,2.71
2023-03-08T16:55:00.804Z,2.63
2023-03-08T16:57:28.167Z,2.53
2023-03-08T16:59:55.605Z,2.45
2023-03-08T17:02:24.295Z,2.37
2023-03-08T17:04:52.400Z,2.34
2023-03-08T17:07:20.370Z,2.35
2023-03-08T17:10:10.229Z,2.38
2023-03-08T17:12:37.449Z,2.34
2023-03-08T17:15:10.407Z,2.29
2023-03-08T17:17:39.228Z,2.25
2023-03-08T17:20:11.105Z,2.22
2023-03-08T17:22:38.609Z,2.19
2023-03-08T17:25:06.619Z,2.12
2023-03-08T17:27:33.853Z,2.03
2023-03-08T17:30:02.681Z,1.94
2023-03-08T17:32:31.744Z,1.85
2023-03-08T17:34:59.294Z,1.78
2023-03-08T17:37:46.927Z,1.73
2023-03-08T17:40:15.459Z,1.65
2023-03-08T17:42:54.282Z,1.60
2023-03-08T17:45:21.706Z,1.56
2023-03-08T17:47:49.512Z,1.50
2023-03-08T17:50:16.662Z,1.43
2023-03-08T17:52:44.414Z,1.39
2023-03-08T17:55:13.001Z,1.37
2023-03-08T17:57:40.506Z,1.33
2023-03-08T18:00:12.291Z,1.27
2023-03-08T18:02:42.398Z,1.23
2023-03-08T18:05:22.259Z,1.20
2023-03-08T18:07:50.396Z,1.17
2023-03-08T18:10:17.946Z,1.14
2023-03-08T18:12:45.175Z,1.12
2023-03-08T18:15:14.692Z,1.11
2023-03-08T18:17:41.972Z,1.11
2023-03-08T18:20:12.872Z,1.10
2023-03-08T18:22:42.478Z,1.09
2023-03-08T18:25:13.113Z,1.08
2023-03-08T18:27:50.677Z,1.06
2023-03-08T18:30:19.101Z,1.07
2023-03-08T18:32:46.468Z,1.05
2023-03-08T18:35:14.541Z,1.03
2023-03-08T18:37:42.135Z,0.96
2023-03-08T18:40:12.710Z,0.89
2023-03-08T18:42:40.095Z,0.81
2023-03-08T18:45:10.099Z,0.74
2023-03-08T18:47:41.032Z,0.68
2023-03-08T18:50:10.405Z,0.61
2023-03-08T18:52:40.247Z,0.55
2023-03-08T18:55:09.941Z,0.50
2023-03-08T18:57:37.197Z,0.46
2023-03-08T19:00:10.486Z,0.43
2023-03-08T19:02:37.887Z,0.39
2023-03-08T19:05:05.691Z,0.34
2023-03-08T19:07:33.069Z,0.30
2023-03-08T19:10:03.610Z,0.25
2023-03-08T19:12:33.836Z,0.21
2023-03-08T19:15:03.485Z,0.17
2023-03-08T19:17:30.836Z,0.16
2023-03-08T19:19:58.094Z,0.15
2023-03-08T19:22:25.498Z,0.14
2023-03-08T19:24:52.800Z,0.13
2023-03-08T19:27:20.019Z,0.11
2023-03-08T19:29:47.694Z,0.08
2023-03-08T19:32:17.886Z,0.06
2023-03-08T19:34:46.060Z,0.05
2023-03-08T19:37:15.192Z,0.03
2023-03-08T19:39:43.895Z,-0.00
2023-03-08T19:42:15.926Z,-0.02
2023-03-08T19:44:44.459Z,-0.04
2023-03-08T19:47:12.052Z,-0.05
2023-03-08T19:49:40.451Z,-0.06
2023-03-08T19:52:08.860Z,-0.06
2023-03-08T19:54:36.395Z,-0.06
2023-03-08T19:57:04.625Z,-0.06
2023-03-08T19:59:31.857Z,-0.04
2023-03-08T20:02:01.570Z,-0.03
2023-03-08T20:04:31.239Z,-0.01
2023-03-08T20:07:03.228Z,0.01
2023-03-08T20:09:30.873Z,0.02
2023-03-08T20:11:59.327Z,0.04
2023-03-08T20:14:28.122Z,0.06
2023-03-08T20:16:55.868Z,0.06
2023-03-08T20:19:26.471Z,0.07
2023-03-08T20:21:57.012Z,0.09
2023-03-08T20:24:27.711Z,0.11
2023-03-08T20:26:59.348Z,0.14
2023-03-08T20:29:26.643Z,0.17
2023-03-08T20:31:58.431Z,0.22
2023-03-08T20:34:27.473Z,0.25
2023-03-08T20:36:54.855Z,0.29
2023-03-08T20:39:42.804Z,0.34
2023-03-08T20:42:10.041Z,0.37
2023-03-08T20:44:41.112Z,0.40
2023-03-08T20:47:08.854Z,0.44
2023-03-08T20:49:36.006Z,0.48
2023-03-08T20:52:06.509Z,0.51
2023-03-08T20:54:34.190Z,0.53
2023-03-08T20:57:21.642Z,0.55
2023-03-08T20:59:49.888Z,0.59
2023-03-08T21:02:17.684Z,0.61
2023-03-08T21:04:48.832Z,0.66
2023-03-08T21:07:16.222Z,0.69
2023-03-08T21:09:44.106Z,0.71
2023-03-08T21:12:11.730Z,0.72
2023-03-08T21:14:39.038Z,0.72
2023-03-08T21:17:06.387Z,0.73
2023-03-08T21:19:36.801Z,0.76
2023-03-08T21:22:05.499Z,0.80
2023-03-08T21:24:35.070Z,0.83
2023-03-08T21:27:02.560Z,0.86
2023-03-08T21:29:30.469Z,0.91
2023-03-08T21:31:58.318Z,0.94
2023-03-08T21:34:25.622Z,0.97
2023-03-08T21:36:52.901Z,0.99
2023-03-08T21:39:20.748Z,1.01
2023-03-08T21:41:49.146Z,1.04
2023-03-08T21:44:20.948Z,1.07
2023-03-08T21:46:49.155Z,1.09
2023-03-08T21:49:21.707Z,1.10
2023-03-08T21:51:49.039Z,1.12
2023-03-08T21:54:36.777Z,1.14
2023-03-08T21:57:04.288Z,1.15
2023-03-08T21:59:31.859Z,1.16
2023-03-08T22:02:02.410Z,1.17
2023-03-08T22:04:33.140Z,1.17
2023-03-08T22:07:00.520Z,1.18
2023-03-08T22:09:29.520Z,1.18
2023-03-08T22:11:58.648Z,1.17
2023-03-08T22:14:46.429Z,1.18
2023-03-08T22:17:16.082Z,1.18
2023-03-08T22:19:44.195Z,1.18
2023-03-08T22:22:11.925Z,1.19
2023-03-08T22:24:41.484Z,1.19
2023-03-08T22:27:10.849Z,1.19
2023-03-08T22:29:38.825Z,1.19
2023-03-08T22:32:07.420Z,1.19
2023-03-08T22:34:35.703Z,1.19
2023-03-08T22:37:23.505Z,1.20
2023-03-08T22:39:53.198Z,1.20
2023-03-08T22:42:25.581Z,1.17
2023-03-08T22:44:53.184Z,1.17
2023-03-08T22:47:20.360Z,1.16
2023-03-08T22:49:52.525Z,1.14
2023-03-08T22:52:22.492Z,1.13
2023-03-08T22:54:53.039Z,1.12
2023-03-08T22:57:23.688Z,1.12
2023-03-08T22:59:59.247Z,1.10
2023-03-08T23:02:30.740Z,1.09
2023-03-08T23:05:00.933Z,1.06
2023-03-08T23:07:28.171Z,1.04
2023-03-08T23:09:55.465Z,1.03
2023-03-08T23:12:34.194Z,1.03
2023-03-08T23:16:16.966Z,1.04
2023-03-08T23:19:03.008Z,1.01
2023-03-08T23:21:35.819Z,1.00
2023-03-08T23:27:41.577Z,0.95
2023-03-08T23:30:19.858Z,0.94
2023-03-08T23:33:49.722Z,0.92
2023-03-08T23:36:19.279Z,0.89
2023-03-08T23:38:47.065Z,0.86
2023-03-08T23:41:16.435Z,0.85
2023-03-08T23:43:44.377Z,0.84
2023-03-08T23:46:14.205Z,0.82
2023-03-08T23:48:41.909Z,0.81
2023-03-08T23:51:10.902Z,0.80
2023-03-08T23:53:38.709Z,0.78
2023-03-08T23:56:07.149Z,0.76
2023-03-08T23:58:34.853Z,0.74
